This is the latest recevied weather packets stored in our database for station/object KD8ZLZ-13. If no packets are shown the sender has not sent any weather packets the latest 10 day(s).
| Time | Temp. | Humidity | Pressure | Rain* | Wind** | Luminosity | Snow |
|---|---|---|---|---|---|---|---|
| 1777322670 | 18.89° C | 53% | 1015.6 hPa | 0 mm | - | 176 W/m² | - |
| 1777322070 | 18.33° C | 54% | 1015.6 hPa | 0 mm | - | 174 W/m² | - |
| 1777321470 | 18.33° C | 55% | 1015.6 hPa | 0 mm | - | 139 W/m² | - |
| 1777320870 | 18.33° C | 55% | 1015.6 hPa | 0 mm | - | 141 W/m² | - |
| 1777320270 | 18.89° C | 54% | 1015.6 hPa | 0 mm | - | 238 W/m² | - |
| 1777319670 | 19.44° C | 54% | 1015.6 hPa | 0 mm | - | 343 W/m² | - |
| 1777319070 | 19.44° C | 54% | 1015.6 hPa | 0 mm | - | 378 W/m² | - |
| 1777318470 | 19.44° C | 54% | 1015.9 hPa | 0 mm | - | 407 W/m² | - |
| 1777317870 | 19.44° C | 54% | 1015.9 hPa | 0 mm | - | 401 W/m² | - |
| 1777317270 | 19.44° C | 54% | 1016.3 hPa | 0 mm | - | 423 W/m² | - |
| 1777316670 | 19.44° C | 54% | 1015.9 hPa | 0 mm | - | 470 W/m² | - |
| 1777316070 | 19.44° C | 54% | 1016.3 hPa | 0 mm | - | 539 W/m² | - |
| 1777315470 | 19.44° C | 54% | 1016.6 hPa | 0 mm | - | 633 W/m² | - |
| 1777314870 | 19.44° C | 54% | 1016.3 hPa | 0 mm | - | 585 W/m² | - |
| 1777314270 | 20° C | 55% | 1016.3 hPa | 0 mm | - | 561 W/m² | - |
| 1777313670 | 20° C | 54% | 1017.3 hPa | 0 mm | - | 660 W/m² | - |
| 1777313070 | 20° C | 55% | 1018 hPa | 0 mm | - | 783 W/m² | - |
| 1777312469 | 19.44° C | 55% | 1018.3 hPa | 0 mm | - | 788 W/m² | - |
| 1777311869 | 19.44° C | 55% | 1018.3 hPa | 0 mm | - | 763 W/m² | - |
| 1777311270 | 19.44° C | 55% | 1018.3 hPa | 0 mm | - | 715 W/m² | - |
| 1777310670 | 19.44° C | 55% | 1018.3 hPa | 0 mm | - | 695 W/m² | - |
| 1777310070 | 18.89° C | 56% | 1018 hPa | 0 mm | - | 556 W/m² | - |
| 1777309469 | 18.89° C | 56% | 1018.3 hPa | 0 mm | - | 701 W/m² | - |
* Rain latest hour (hover to see other rain measurements)
** Current wind speed in m/s (hover to see current wind gust speed)